Fayette, MO (65248)

3:00 AM CST on December 19, 2014 (GMT -0600)
Viertel Memorial | Change Station
CLOSE
Current Station
Airport
Location: Boonville,
Elevation: 715 ft
Nearby Weather Stations

Elev 715 ft 38.95 °N, 92.68 °W | Updated 25 minutes ago

Overcast
Overcast
32 °F
Feels Like 28 °F
N
5
Wind Variable Wind from East

Today
High -- | Low -- °F
--% Chance of Precip.
Yesterday
High -- | Low -- °F
Precip. -- in
7:25 AM 4:50 PM
Waning Crescent, 9% visible
Pressure 30.26 in
Visibility 4.0 miles
Clouds Overcast 600 ft
Windchill 28 °F
Dew Point 32 °F
Humidity 100%
Rainfall 0.00 in
Snow Depth Not available.
UV 0 out of 12
Pollen .40 out of 12
Air Quality Not available.
Flu Activity Not available.
METAR KVER 190835Z AUTO 09004KT 4SM BR OVC006 00/00 A3026 RMK AO2 T00000000

More Conditions Fewer Conditions

Pressure 30.26 in
Visibility 4.0 miles
Clouds Overcast 600 ft
Windchill 28 °F
Dew Point 32 °F
Humidity 100%
Rainfall 0.00 in
Snow Depth Not available.
UV 0 out of 12
Pollen .40 out of 12
Air Quality Not available.
Flu Activity Not available.
METAR KVER 190835Z AUTO 09004KT 4SM BR OVC006 00/00 A3026 RMK AO2 T00000000

More Conditions Fewer Conditions

10-Day Weather Forecast

Almanac

Astronomy

Dec. 19, 2014 Rise Set
Actual Time
Civil Twilight
Nautical Twilight
Astronomical Twilight
Moon
Length of Visible Light
Length of Day
Tomorrow will be .
, % of the Moon is Illuminated

Today's Extremes

State Highs State Lows

Community

WunderPhotos

Upload Photos

1,778,953 photos uploaded!

WunderBlogs® & News

Nearby

Air Quality

  Air Quality AQ Index Pollutant
Not available.

Snow Depth

Station Depth Elevation

Earthquake Activity

City Distance Mag. Time & Date
Minimum magnitude displayed is 2.5.

Coastal Water Temperatures

Place Temperature

Nearby Weather Stations